createdAt,value
2018-09-25T00:00:44.762Z,9.20
2018-09-25T00:03:18.916Z,9.30
2018-09-25T00:05:53.123Z,9.30
2018-09-25T00:08:27.255Z,9.40
2018-09-25T00:11:01.571Z,9.50
2018-09-25T00:13:35.857Z,9.50
2018-09-25T00:16:10.169Z,9.40
2018-09-25T00:18:44.270Z,9.40
2018-09-25T00:21:18.442Z,9.40
2018-09-25T00:23:52.570Z,9.30
2018-09-25T00:26:26.630Z,9.30
2018-09-25T00:29:00.870Z,9.30
2018-09-25T00:31:34.943Z,9.20
2018-09-25T00:34:09.034Z,9.20
2018-09-25T00:36:43.099Z,9.20
2018-09-25T00:39:17.270Z,9.20
2018-09-25T00:41:51.425Z,9.10
2018-09-25T00:44:25.685Z,9.10
2018-09-25T00:46:59.989Z,9.00
2018-09-25T00:49:34.210Z,8.90
2018-09-25T00:52:08.411Z,8.90
2018-09-25T00:54:42.451Z,8.80
2018-09-25T00:57:16.582Z,8.80
2018-09-25T00:59:50.811Z,8.70
2018-09-25T01:02:24.802Z,8.70
2018-09-25T01:04:58.872Z,8.70
2018-09-25T01:07:33.095Z,8.80
2018-09-25T01:10:07.230Z,8.80
2018-09-25T01:12:41.458Z,8.70
2018-09-25T01:15:15.870Z,8.80
2018-09-25T01:17:49.926Z,8.80
2018-09-25T01:20:24.050Z,8.80
2018-09-25T01:22:58.091Z,8.80
2018-09-25T01:25:39.829Z,8.80
2018-09-25T01:28:13.897Z,8.70
2018-09-25T01:30:48.005Z,8.70
2018-09-25T01:33:22.263Z,8.60
2018-09-25T01:35:56.324Z,8.60
2018-09-25T01:38:30.491Z,8.60
2018-09-25T01:41:04.593Z,8.60
2018-09-25T01:43:38.832Z,8.60
2018-09-25T01:46:12.893Z,8.60
2018-09-25T01:48:47.091Z,8.60
2018-09-25T01:51:21.384Z,8.70
2018-09-25T01:53:55.658Z,8.60
2018-09-25T01:56:29.790Z,8.70
2018-09-25T01:59:03.955Z,8.70
2018-09-25T02:01:38.002Z,8.70
2018-09-25T02:04:12.191Z,8.70
2018-09-25T02:06:46.310Z,8.70
2018-09-25T02:09:20.571Z,8.70
2018-09-25T02:11:54.746Z,8.60
2018-09-25T02:14:28.870Z,8.60
2018-09-25T02:17:03.116Z,8.50
2018-09-25T02:19:37.309Z,8.40
2018-09-25T02:22:11.570Z,8.40
2018-09-25T02:24:45.778Z,8.30
2018-09-25T02:27:20.036Z,8.30
2018-09-25T02:29:54.232Z,8.30
2018-09-25T02:32:28.494Z,8.30
2018-09-25T02:35:02.616Z,8.30
2018-09-25T02:37:36.810Z,8.20
2018-09-25T02:40:10.770Z,8.20
2018-09-25T02:42:44.972Z,8.20
2018-09-25T02:45:19.207Z,8.10
2018-09-25T02:47:53.451Z,8.10
2018-09-25T02:50:27.576Z,8.10
2018-09-25T02:53:01.770Z,8.10
2018-09-25T02:55:35.986Z,8.00
2018-09-25T02:58:10.840Z,8.00
2018-09-25T03:00:45.102Z,8.00
2018-09-25T03:03:19.490Z,8.00
2018-09-25T03:05:53.670Z,8.00
2018-09-25T03:08:27.902Z,8.00
2018-09-25T03:11:01.942Z,7.90
2018-09-25T03:13:36.030Z,7.90
2018-09-25T03:16:10.205Z,7.80
2018-09-25T03:18:44.262Z,7.80
2018-09-25T03:21:18.510Z,7.80
2018-09-25T03:23:52.590Z,7.70
2018-09-25T03:26:26.742Z,7.70
2018-09-25T03:29:00.911Z,7.70
2018-09-25T03:31:34.993Z,7.70
2018-09-25T03:34:09.353Z,7.60
2018-09-25T03:36:43.593Z,7.60
2018-09-25T03:39:17.841Z,7.60
2018-09-25T03:41:52.031Z,7.50
2018-09-25T03:47:11.253Z,7.50
2018-09-25T03:49:45.490Z,7.50
2018-09-25T03:52:19.631Z,7.40
2018-09-25T03:54:53.851Z,7.40
2018-09-25T03:57:28.034Z,7.40
2018-09-25T04:00:02.271Z,7.40
2018-09-25T04:02:36.371Z,7.40
2018-09-25T04:05:10.628Z,7.30
2018-09-25T04:07:44.771Z,7.30
2018-09-25T04:10:18.985Z,7.30
2018-09-25T04:12:53.125Z,7.30
2018-09-25T04:15:27.273Z,7.30
2018-09-25T04:18:01.414Z,7.30
2018-09-25T04:20:35.629Z,7.30
2018-09-25T04:23:09.868Z,7.30
2018-09-25T04:25:43.897Z,7.30
2018-09-25T04:28:18.174Z,7.20
2018-09-25T04:30:52.232Z,7.20
2018-09-25T04:33:26.339Z,7.20
2018-09-25T04:36:00.330Z,7.10
2018-09-25T04:38:34.683Z,7.10
2018-09-25T04:41:09.015Z,7.10
2018-09-25T04:43:43.191Z,7.10
2018-09-25T04:46:17.436Z,7.10
2018-09-25T04:48:51.682Z,7.00
2018-09-25T04:51:25.670Z,7.00
2018-09-25T04:53:59.990Z,7.00
2018-09-25T04:56:34.114Z,6.90
2018-09-25T04:59:08.334Z,6.90
2018-09-25T05:01:42.413Z,6.90
2018-09-25T05:04:16.466Z,6.90
2018-09-25T05:06:50.530Z,6.90
2018-09-25T05:09:24.698Z,6.90
2018-09-25T05:11:58.755Z,6.90
2018-09-25T05:14:32.835Z,6.90
2018-09-25T05:17:06.910Z,6.90
2018-09-25T05:19:41.109Z,6.90
2018-09-25T05:22:15.450Z,6.90
2018-09-25T05:24:49.534Z,7.00
2018-09-25T05:27:23.739Z,7.10
2018-09-25T05:29:57.765Z,7.10
2018-09-25T05:32:31.809Z,7.10
2018-09-25T05:35:05.931Z,7.10
2018-09-25T05:37:40.065Z,7.10
2018-09-25T05:40:14.291Z,7.10
2018-09-25T05:42:48.530Z,7.10
2018-09-25T05:45:22.744Z,7.10
2018-09-25T05:47:56.968Z,7.10
2018-09-25T05:50:31.025Z,7.10
2018-09-25T05:53:05.123Z,7.10
2018-09-25T05:55:39.439Z,7.10
2018-09-25T05:58:13.334Z,7.10
2018-09-25T06:00:47.592Z,7.10
2018-09-25T06:03:21.817Z,7.10
2018-09-25T06:05:56.065Z,7.10
2018-09-25T06:08:30.090Z,7.10
2018-09-25T06:11:04.305Z,7.10
2018-09-25T06:13:38.372Z,7.10
2018-09-25T06:16:12.658Z,7.20
2018-09-25T06:18:46.837Z,7.20
2018-09-25T06:21:20.974Z,7.20
2018-09-25T06:23:55.015Z,7.20
2018-09-25T06:26:29.188Z,7.20
2018-09-25T06:29:03.330Z,7.30
2018-09-25T06:31:37.388Z,7.30
2018-09-25T06:34:11.557Z,7.30
2018-09-25T06:36:45.710Z,7.40
2018-09-25T06:39:19.711Z,7.40
2018-09-25T06:41:54.048Z,7.40
2018-09-25T06:44:28.130Z,7.40
2018-09-25T06:47:02.324Z,7.50
2018-09-25T06:49:36.528Z,7.50
2018-09-25T06:52:10.715Z,7.50
2018-09-25T06:54:44.851Z,7.60
2018-09-25T06:57:19.026Z,7.60
2018-09-25T06:59:53.185Z,7.70
2018-09-25T07:02:27.250Z,7.80
2018-09-25T07:05:01.395Z,7.90
2018-09-25T07:07:35.540Z,7.90
2018-09-25T07:10:09.909Z,7.90
2018-09-25T07:12:43.885Z,8.00
2018-09-25T07:15:18.042Z,8.00
2018-09-25T07:17:52.350Z,8.00
2018-09-25T07:20:26.411Z,8.10
2018-09-25T07:23:00.497Z,8.10
2018-09-25T07:25:34.715Z,8.10
2018-09-25T07:28:08.750Z,8.20
2018-09-25T07:30:42.851Z,8.20
2018-09-25T07:33:17.024Z,8.30
2018-09-25T07:35:51.078Z,8.40
2018-09-25T07:38:32.728Z,8.50
2018-09-25T07:41:06.862Z,8.70
2018-09-25T07:43:41.174Z,8.90
2018-09-25T07:46:15.325Z,9.10
2018-09-25T07:48:49.462Z,9.30
2018-09-25T07:51:23.630Z,9.50
2018-09-25T07:53:57.825Z,9.80
2018-09-25T07:56:32.022Z,9.90
2018-09-25T07:59:06.286Z,10.00
2018-09-25T08:01:40.467Z,10.20
2018-09-25T08:04:14.608Z,10.40
2018-09-25T08:06:48.931Z,10.60
2018-09-25T08:09:23.098Z,10.70
2018-09-25T08:11:57.174Z,10.80
2018-09-25T08:14:31.327Z,10.70
2018-09-25T08:17:05.515Z,10.70
2018-09-25T08:19:39.550Z,10.80
2018-09-25T08:22:13.648Z,10.90
2018-09-25T08:24:50.840Z,10.90
2018-09-25T08:27:25.031Z,11.10
2018-09-25T08:29:59.191Z,11.30
2018-09-25T08:32:33.151Z,11.10
2018-09-25T08:35:07.530Z,11.00
2018-09-25T08:37:41.898Z,11.00
2018-09-25T08:40:16.024Z,11.20
2018-09-25T08:42:50.051Z,11.10
2018-09-25T08:45:24.036Z,11.10
2018-09-25T08:47:58.163Z,11.10
2018-09-25T08:50:32.391Z,11.30
2018-09-25T08:53:06.569Z,11.70
2018-09-25T08:55:40.740Z,11.70
2018-09-25T08:58:14.901Z,11.80
2018-09-25T09:00:49.185Z,11.70
2018-09-25T09:03:23.350Z,11.80
2018-09-25T09:05:57.588Z,11.90
2018-09-25T09:08:31.716Z,12.00
2018-09-25T09:11:06.761Z,11.90
2018-09-25T09:13:41.054Z,11.80
2018-09-25T09:16:15.395Z,11.70
2018-09-25T09:18:49.590Z,11.60
2018-09-25T09:21:23.905Z,11.50
2018-09-25T09:23:58.051Z,11.70
2018-09-25T09:26:32.145Z,12.20
2018-09-25T09:29:06.316Z,12.50
2018-09-25T09:31:40.465Z,12.60
2018-09-25T09:34:14.565Z,12.60
2018-09-25T09:36:48.755Z,12.50
2018-09-25T09:39:23.037Z,12.30
2018-09-25T09:41:57.424Z,12.50
2018-09-25T09:44:31.430Z,12.60
2018-09-25T09:47:05.520Z,12.50
2018-09-25T09:49:39.789Z,12.40
2018-09-25T09:52:13.997Z,12.30
2018-09-25T09:54:47.987Z,12.70
2018-09-25T09:57:31.704Z,13.20
2018-09-25T10:00:05.965Z,13.50
2018-09-25T10:02:40.165Z,13.70
2018-09-25T10:05:14.270Z,13.20
2018-09-25T10:07:48.394Z,13.10
2018-09-25T10:10:22.512Z,13.40
2018-09-25T10:12:56.717Z,13.70
2018-09-25T10:15:30.941Z,13.50
2018-09-25T10:18:05.115Z,13.40
2018-09-25T10:20:39.411Z,13.70
2018-09-25T10:23:13.610Z,14.20
2018-09-25T10:25:47.926Z,14.20
2018-09-25T10:28:21.982Z,14.00
2018-09-25T10:30:56.248Z,13.60
2018-09-25T10:33:30.370Z,13.30
2018-09-25T10:36:04.506Z,13.20
2018-09-25T10:38:38.831Z,13.70
2018-09-25T10:41:12.893Z,14.30
2018-09-25T10:43:47.674Z,14.30
2018-09-25T10:46:21.770Z,13.80
2018-09-25T10:48:55.845Z,13.60
2018-09-25T10:51:30.035Z,13.90
2018-09-25T10:54:04.134Z,14.30
2018-09-25T10:56:38.222Z,14.60
2018-09-25T10:59:12.324Z,15.10
2018-09-25T11:01:46.450Z,15.70
2018-09-25T11:04:20.605Z,16.00
2018-09-25T11:06:54.748Z,16.10
2018-09-25T11:09:29.017Z,16.10
2018-09-25T11:12:03.086Z,16.30
2018-09-25T11:14:37.271Z,16.40
2018-09-25T11:17:11.326Z,16.30
2018-09-25T11:19:45.469Z,16.00
2018-09-25T11:22:19.586Z,15.70
2018-09-25T11:24:53.767Z,15.20
2018-09-25T11:27:27.807Z,14.60
2018-09-25T11:30:01.815Z,14.00
2018-09-25T11:32:41.191Z,14.00
2018-09-25T11:35:15.360Z,14.40
2018-09-25T11:37:49.567Z,14.80
2018-09-25T11:40:23.790Z,15.20
2018-09-25T11:42:57.933Z,15.10
2018-09-25T11:45:32.025Z,14.90
2018-09-25T11:48:06.171Z,15.10
2018-09-25T11:50:40.335Z,15.50
2018-09-25T11:53:14.510Z,15.80
2018-09-25T11:55:48.668Z,16.30
2018-09-25T11:58:22.883Z,16.70
2018-09-25T12:00:57.151Z,17.00
2018-09-25T12:03:31.357Z,17.40
2018-09-25T12:06:05.457Z,17.40
2018-09-25T12:08:39.564Z,17.30
2018-09-25T12:11:13.745Z,17.40
2018-09-25T12:13:47.981Z,17.80
2018-09-25T12:16:22.270Z,18.00
2018-09-25T12:18:58.543Z,17.80
2018-09-25T12:21:32.812Z,17.60
2018-09-25T12:24:07.070Z,17.60
2018-09-25T12:26:41.229Z,17.90
2018-09-25T12:29:15.550Z,17.90
2018-09-25T12:31:49.740Z,17.90
2018-09-25T12:34:23.730Z,17.70
2018-09-25T12:36:57.896Z,17.40
2018-09-25T12:39:32.030Z,16.90
2018-09-25T12:42:06.211Z,16.90
2018-09-25T12:44:40.360Z,17.40
2018-09-25T12:47:14.542Z,18.10
2018-09-25T12:49:48.742Z,18.80
2018-09-25T12:52:22.897Z,18.90
2018-09-25T12:54:57.030Z,18.60
2018-09-25T12:57:31.215Z,18.40
2018-09-25T13:00:05.426Z,18.00
2018-09-25T13:02:39.610Z,17.50
2018-09-25T13:05:13.680Z,17.30
2018-09-25T13:07:47.909Z,17.60
2018-09-25T13:10:22.033Z,17.20
2018-09-25T13:12:56.190Z,16.60
2018-09-25T13:15:30.290Z,16.00
2018-09-25T13:18:04.483Z,15.50
2018-09-25T13:20:38.608Z,15.70
2018-09-25T13:23:12.736Z,15.50
2018-09-25T13:25:47.013Z,15.20
2018-09-25T13:28:21.128Z,14.80
2018-09-25T13:30:55.250Z,14.70
2018-09-25T13:33:29.393Z,14.80
2018-09-25T13:36:03.453Z,15.20
2018-09-25T13:38:37.670Z,16.90
2018-09-25T13:41:11.875Z,18.60
2018-09-25T13:43:46.150Z,19.80
2018-09-25T13:46:20.346Z,20.70
2018-09-25T13:48:54.504Z,21.00
2018-09-25T13:51:34.471Z,20.00
2018-09-25T13:54:08.417Z,18.90
2018-09-25T13:56:42.412Z,17.80
2018-09-25T13:59:16.608Z,17.30
2018-09-25T14:01:50.762Z,17.10
2018-09-25T14:04:24.852Z,17.20
2018-09-25T14:06:59.132Z,17.20
2018-09-25T14:09:33.188Z,17.20
2018-09-25T14:12:07.422Z,17.00
2018-09-25T14:14:41.654Z,16.80
2018-09-25T14:17:15.904Z,16.30
2018-09-25T14:19:50.051Z,15.90
2018-09-25T14:22:24.259Z,15.50
2018-09-25T14:24:58.384Z,15.20
2018-09-25T14:27:32.708Z,15.00
2018-09-25T14:30:06.756Z,14.60
2018-09-25T14:32:40.749Z,14.40
2018-09-25T14:35:14.787Z,14.10
2018-09-25T14:37:48.842Z,13.80
2018-09-25T14:40:22.954Z,13.60
2018-09-25T14:42:56.975Z,13.30
2018-09-25T14:45:31.171Z,13.00
2018-09-25T14:48:05.291Z,12.90
2018-09-25T14:50:39.473Z,12.80
2018-09-25T14:53:13.689Z,12.80
2018-09-25T14:55:47.774Z,12.90
2018-09-25T14:58:21.892Z,12.90
2018-09-25T15:00:56.083Z,13.10
2018-09-25T15:03:30.369Z,13.10
2018-09-25T15:06:04.571Z,13.10
2018-09-25T15:08:39.007Z,12.90
2018-09-25T15:11:13.130Z,12.90
2018-09-25T15:13:47.309Z,12.80
2018-09-25T15:16:21.466Z,12.70
2018-09-25T15:18:55.767Z,12.60
2018-09-25T15:21:30.074Z,12.50
2018-09-25T15:24:04.288Z,12.40
2018-09-25T15:26:38.481Z,12.20
2018-09-25T15:29:12.606Z,12.10
2018-09-25T15:31:46.673Z,12.10
2018-09-25T15:34:20.683Z,12.00
2018-09-25T15:36:54.883Z,11.90
2018-09-25T15:39:28.884Z,11.90
2018-09-25T15:42:03.025Z,12.00
2018-09-25T15:44:37.342Z,12.00
2018-09-25T15:47:11.502Z,12.10
2018-09-25T15:49:45.726Z,12.10
2018-09-25T15:52:19.831Z,12.10
2018-09-25T15:54:54.054Z,12.10
2018-09-25T15:57:28.251Z,12.00
2018-09-25T16:00:02.417Z,11.80
2018-09-25T16:02:36.637Z,11.60
2018-09-25T16:05:10.895Z,11.40
2018-09-25T16:07:45.051Z,11.30
2018-09-25T16:10:19.300Z,11.20
2018-09-25T16:12:53.450Z,11.00
2018-09-25T16:15:27.680Z,10.90
2018-09-25T16:18:01.710Z,10.80
2018-09-25T16:20:35.785Z,10.70
2018-09-25T16:23:09.872Z,10.70
2018-09-25T16:25:44.070Z,10.60
2018-09-25T16:28:18.193Z,10.50
2018-09-25T16:30:59.339Z,10.30
2018-09-25T16:33:33.510Z,10.10
2018-09-25T16:36:07.625Z,9.90
2018-09-25T16:38:41.748Z,9.80
2018-09-25T16:41:15.792Z,9.60
2018-09-25T16:43:49.885Z,9.50
2018-09-25T16:46:24.110Z,9.40
2018-09-25T16:48:58.153Z,9.30
2018-09-25T16:51:32.172Z,9.10
2018-09-25T16:54:06.302Z,9.10
2018-09-25T16:56:40.467Z,9.00
2018-09-25T16:59:14.702Z,8.80
2018-09-25T17:01:48.768Z,8.70
2018-09-25T17:04:22.894Z,8.60
2018-09-25T17:06:57.025Z,8.40
2018-09-25T17:09:31.271Z,8.20
2018-09-25T17:12:05.422Z,8.10
2018-09-25T17:14:39.663Z,8.00
2018-09-25T17:17:13.775Z,7.90
2018-09-25T17:19:47.811Z,7.90
2018-09-25T17:22:22.050Z,7.80
2018-09-25T17:24:56.154Z,7.70
2018-09-25T17:27:30.350Z,7.60
2018-09-25T17:30:04.710Z,7.50
2018-09-25T17:32:38.689Z,7.40
2018-09-25T17:35:12.774Z,7.40
2018-09-25T17:37:46.870Z,7.20
2018-09-25T17:40:21.166Z,7.10
2018-09-25T17:42:55.230Z,7.10
2018-09-25T17:45:29.364Z,7.00
2018-09-25T17:48:03.573Z,7.00
2018-09-25T17:50:37.674Z,6.90
2018-09-25T17:53:11.896Z,6.90
2018-09-25T17:55:46.122Z,6.80
2018-09-25T17:58:20.295Z,6.70
2018-09-25T18:00:54.521Z,6.60
2018-09-25T18:03:28.579Z,6.50
2018-09-25T18:06:02.696Z,6.50
2018-09-25T18:08:36.825Z,6.50
2018-09-25T18:11:11.213Z,6.50
2018-09-25T18:13:45.367Z,6.40
2018-09-25T18:16:19.713Z,6.40
2018-09-25T18:18:53.936Z,6.40
2018-09-25T18:21:28.013Z,6.40
2018-09-25T18:24:02.247Z,6.40
2018-09-25T18:26:36.466Z,6.40
2018-09-25T18:29:10.807Z,6.40
2018-09-25T18:31:45.178Z,6.40
2018-09-25T18:34:19.587Z,6.40
2018-09-25T18:36:53.988Z,6.40
2018-09-25T18:39:28.510Z,6.40
2018-09-25T18:42:02.948Z,6.40
2018-09-25T18:44:37.402Z,6.40
2018-09-25T18:47:12.168Z,6.50
2018-09-25T18:49:46.429Z,6.50
2018-09-25T18:52:20.840Z,6.50
2018-09-25T18:54:55.174Z,6.50
2018-09-25T18:57:29.694Z,6.40
2018-09-25T19:00:04.037Z,6.40
2018-09-25T19:02:38.511Z,6.40
2018-09-25T19:05:13.522Z,6.30
2018-09-25T19:07:47.889Z,6.30
2018-09-25T19:10:22.410Z,6.30
2018-09-25T19:12:56.990Z,6.30
2018-09-25T19:15:31.954Z,6.30
2018-09-25T19:18:06.209Z,6.20
2018-09-25T19:20:40.831Z,6.20
2018-09-25T19:23:15.088Z,6.10
2018-09-25T19:25:49.454Z,6.10
2018-09-25T19:28:23.756Z,6.00
2018-09-25T19:30:58.274Z,6.00
2018-09-25T19:33:32.675Z,6.00
2018-09-25T19:36:07.111Z,5.90
2018-09-25T19:38:41.450Z,5.90
2018-09-25T19:41:15.979Z,5.80
2018-09-25T19:43:50.410Z,5.80
2018-09-25T19:46:24.890Z,5.70
2018-09-25T19:48:59.330Z,5.70
2018-09-25T19:51:33.713Z,5.60
2018-09-25T19:54:08.313Z,5.60
2018-09-25T19:56:42.670Z,5.60
2018-09-25T19:59:17.124Z,5.50
2018-09-25T20:01:51.605Z,5.50
2018-09-25T20:04:26.242Z,5.50
2018-09-25T20:07:00.765Z,5.40
2018-09-25T20:09:35.136Z,5.40
2018-09-25T20:12:09.526Z,5.40
2018-09-25T20:14:44.170Z,5.30
2018-09-25T20:17:18.600Z,5.30
2018-09-25T20:19:53.884Z,5.30
2018-09-25T20:22:28.228Z,5.30
2018-09-25T20:25:02.756Z,5.20
2018-09-25T20:27:37.073Z,5.20
2018-09-25T20:30:11.566Z,5.20
2018-09-25T20:32:46.105Z,5.20
2018-09-25T20:35:20.565Z,5.10
2018-09-25T20:37:55.121Z,5.00
2018-09-25T20:40:29.517Z,5.00
2018-09-25T20:43:03.839Z,5.00
2018-09-25T20:45:38.158Z,5.00
2018-09-25T20:48:12.137Z,4.90
2018-09-25T20:50:46.323Z,4.90
2018-09-25T20:53:20.425Z,4.80
2018-09-25T20:55:54.630Z,4.80
2018-09-25T20:58:28.722Z,4.80
2018-09-25T21:01:02.727Z,4.80
2018-09-25T21:03:37.205Z,4.80
2018-09-25T21:06:11.687Z,4.80
2018-09-25T21:08:45.921Z,4.70
2018-09-25T21:11:20.065Z,4.70
2018-09-25T21:13:54.285Z,4.70
2018-09-25T21:16:28.575Z,4.70
2018-09-25T21:19:02.734Z,4.60
2018-09-25T21:21:36.909Z,4.60
2018-09-25T21:24:10.950Z,4.60
2018-09-25T21:26:45.109Z,4.60
2018-09-25T21:29:19.245Z,4.60
2018-09-25T21:31:53.442Z,4.60
2018-09-25T21:34:27.592Z,4.50
2018-09-25T21:37:01.787Z,4.60
2018-09-25T21:39:35.890Z,4.50
2018-09-25T21:42:10.137Z,4.50
2018-09-25T21:44:44.385Z,4.40
2018-09-25T21:47:18.455Z,4.40
2018-09-25T21:49:52.467Z,4.30
2018-09-25T21:52:26.614Z,4.30
2018-09-25T21:55:00.690Z,4.30
2018-09-25T21:57:34.880Z,4.20
2018-09-25T22:00:08.947Z,4.20
2018-09-25T22:02:43.002Z,4.20
2018-09-25T22:05:17.102Z,4.20
2018-09-25T22:07:51.250Z,4.10
2018-09-25T22:10:25.254Z,4.10
2018-09-25T22:12:59.365Z,4.00
2018-09-25T22:15:33.574Z,4.00
2018-09-25T22:18:07.750Z,4.00
2018-09-25T22:20:41.786Z,4.00
2018-09-25T22:23:15.893Z,4.00
2018-09-25T22:25:50.070Z,4.00
2018-09-25T22:28:24.257Z,4.00
2018-09-25T22:30:58.575Z,4.00
2018-09-25T22:33:32.750Z,4.00
2018-09-25T22:36:07.131Z,4.00
2018-09-25T22:38:41.289Z,3.90
2018-09-25T22:41:15.258Z,3.90
2018-09-25T22:43:49.504Z,3.80
2018-09-25T22:46:23.712Z,3.90
2018-09-25T22:48:58.036Z,3.80
2018-09-25T22:51:32.244Z,3.80
2018-09-25T22:54:06.238Z,3.80
2018-09-25T22:56:40.269Z,3.80
2018-09-25T22:59:14.593Z,3.70
2018-09-25T23:01:48.650Z,3.70
2018-09-25T23:04:22.725Z,3.60
2018-09-25T23:06:56.865Z,3.60
2018-09-25T23:09:31.111Z,3.50
2018-09-25T23:12:05.173Z,3.50
2018-09-25T23:14:39.330Z,3.50
2018-09-25T23:17:13.617Z,3.50
2018-09-25T23:19:47.789Z,3.50
2018-09-25T23:22:22.066Z,3.40
2018-09-25T23:24:56.118Z,3.40
2018-09-25T23:27:30.254Z,3.40
2018-09-25T23:30:04.357Z,3.40
2018-09-25T23:32:38.529Z,3.30
2018-09-25T23:35:12.645Z,3.30
2018-09-25T23:37:47.063Z,3.30
2018-09-25T23:40:22.088Z,3.20
2018-09-25T23:42:59.370Z,3.20
2018-09-25T23:55:34.245Z,3.20
2018-09-25T23:59:05.950Z,3.20
